Time;durP1;ratioP1;P1;durP2;ratioP2;P2;SDS_P1;SDS_P2;PMS_P1;PMS_P2;Temp;Humidity;BMP_temperature;BMP_pressure;BME280_temperature;BME280_humidity;BME280_pressure;Samples;Min_cycle;Max_cycle;Signal;HPM_P1;HPM_P2
2023/08/23 00:00:00;;;;;;;0.55;0.30;;;13.60;99.90;;;;;;5101813;28;20036;-74
2023/08/23 00:02:25;;;;;;;0.00;0.00;;;13.70;99.90;;;;;;5106200;28;20096;-73
2023/08/23 00:04:51;;;;;;;0.40;0.40;;;13.70;99.90;;;;;;5107635;28;20047;-74
2023/08/23 00:07:17;;;;;;;0.25;0.20;;;13.60;99.90;;;;;;5104340;28;20043;-74
2023/08/23 00:09:43;;;;;;;0.10;0.10;;;13.60;99.90;;;;;;5103401;28;20036;-74
2023/08/23 00:12:08;;;;;;;0.75;0.47;;;13.60;99.90;;;;;;5098892;28;20051;-74
2023/08/23 00:14:35;;;;;;;0.65;0.40;;;13.60;99.90;;;;;;5107509;28;20040;-73
2023/08/23 00:17:00;;;;;;;0.25;0.15;;;13.70;99.90;;;;;;5107534;28;20172;-74
2023/08/23 00:19:26;;;;;;;0.20;0.20;;;13.50;99.90;;;;;;5107276;28;20040;-74
2023/08/23 00:21:51;;;;;;;0.03;0.03;;;13.50;99.90;;;;;;5098694;28;20372;-74
2023/08/23 00:24:18;;;;;;;0.00;0.00;;;13.40;99.90;;;;;;5101376;28;20545;-73
2023/08/23 00:26:44;;;;;;;0.00;0.00;;;13.30;99.90;;;;;;5112562;28;20071;-74
2023/08/23 00:29:10;;;;;;;0.15;0.15;;;13.40;99.90;;;;;;5103829;28;20059;-74
2023/08/23 00:31:35;;;;;;;0.03;0.03;;;13.20;99.90;;;;;;5096251;28;20044;-73
2023/08/23 00:34:01;;;;;;;0.10;0.10;;;13.30;99.90;;;;;;5098731;28;20406;-73
2023/08/23 00:36:27;;;;;;;0.00;0.00;;;13.30;99.90;;;;;;5107060;28;20039;-74
2023/08/23 00:38:54;;;;;;;0.00;0.00;;;13.30;99.90;;;;;;5104302;28;20123;-73
2023/08/23 00:41:20;;;;;;;2.72;0.32;;;13.30;99.90;;;;;;5103579;28;20123;-74
2023/08/23 00:43:45;;;;;;;0.00;0.00;;;13.20;99.90;;;;;;5095149;28;20119;-74
2023/08/23 00:46:12;;;;;;;0.57;0.45;;;13.20;99.90;;;;;;5103265;28;20068;-74
2023/08/23 00:48:38;;;;;;;0.55;0.20;;;13.10;99.90;;;;;;5103267;28;20450;-73
2023/08/23 00:51:03;;;;;;;0.00;0.00;;;13.10;99.90;;;;;;5110004;28;20089;-74
2023/08/23 00:53:29;;;;;;;0.13;0.13;;;13.00;99.90;;;;;;5102259;28;20050;-74
2023/08/23 00:55:55;;;;;;;0.00;0.00;;;13.00;99.90;;;;;;5103495;28;20044;-74
2023/08/23 00:58:22;;;;;;;0.10;0.10;;;13.00;99.90;;;;;;5111024;28;20115;-74
2023/08/23 01:00:49;;;;;;;0.10;0.10;;;13.00;99.90;;;;;;5105002;28;20052;-73
2023/08/23 01:03:15;;;;;;;0.20;0.20;;;13.00;99.90;;;;;;5101942;28;20054;-74
2023/08/23 01:06:00;;;;;;;0.90;0.57;;;12.90;99.90;;;;;;5102792;28;20036;-74
2023/08/23 01:08:34;;;;;;;0.00;0.00;;;12.90;99.90;;;;;;5106269;28;20074;-74
2023/08/23 01:11:10;;;;;;;0.00;0.00;;;12.90;99.90;;;;;;5102523;28;20052;-74
2023/08/23 01:14:01;;;;;;;2.25;0.70;;;12.90;99.90;;;;;;5094467;28;20050;-74
2023/08/23 01:16:28;;;;;;;0.00;0.00;;;12.90;99.90;;;;;;5104718;28;20048;-74
2023/08/23 01:18:56;;;;;;;0.30;0.30;;;12.80;99.90;;;;;;5106007;28;20036;-74
2023/08/23 01:21:36;;;;;;;0.00;0.00;;;12.80;99.90;;;;;;5100362;27;20039;-74
2023/08/23 01:24:08;;;;;;;0.10;0.10;;;12.80;99.90;;;;;;5100110;28;20043;-74
2023/08/23 01:26:36;;;;;;;0.30;0.30;;;12.80;99.90;;;;;;5104546;28;20044;-74
2023/08/23 01:29:02;;;;;;;0.10;0.10;;;12.80;99.90;;;;;;5104621;28;20412;-74
2023/08/23 01:31:32;;;;;;;0.03;0.03;;;12.80;99.90;;;;;;5102852;27;20481;-74
2023/08/23 01:34:12;;;;;;;0.08;0.00;;;12.80;99.90;;;;;;5098754;28;20040;-74
2023/08/23 01:36:41;;;;;;;0.00;0.00;;;12.80;99.90;;;;;;5096692;28;20044;-74
2023/08/23 01:39:10;;;;;;;0.55;0.15;;;12.70;99.90;;;;;;5105339;28;20402;-74
2023/08/23 01:41:37;;;;;;;0.00;0.00;;;12.70;99.90;;;;;;5099693;28;20039;-74
2023/08/23 01:44:02;;;;;;;1.55;0.43;;;12.60;99.90;;;;;;5094255;28;20051;-74
2023/08/23 01:46:28;;;;;;;0.13;0.13;;;12.60;99.90;;;;;;5102192;28;20040;-74
2023/08/23 01:48:54;;;;;;;0.35;0.35;;;12.50;99.90;;;;;;5110650;28;20522;-74
2023/08/23 01:51:19;;;;;;;0.00;0.00;;;12.80;99.90;;;;;;5090222;28;20032;-73
2023/08/23 01:53:45;;;;;;;0.05;0.05;;;12.60;99.90;;;;;;5095992;28;20123;-74
2023/08/23 01:56:10;;;;;;;0.65;0.32;;;12.50;99.90;;;;;;5101456;28;20478;-73
2023/08/23 01:58:36;;;;;;;0.80;0.63;;;12.70;99.90;;;;;;5101986;28;20044;-74
2023/08/23 02:01:02;;;;;;;0.00;0.00;;;12.60;99.90;;;;;;5108567;28;20095;-74
2023/08/23 02:03:27;;;;;;;0.50;0.50;;;12.60;99.90;;;;;;5101990;28;20044;-74
2023/08/23 02:05:55;;;;;;;0.52;0.32;;;12.60;99.90;;;;;;5101923;28;20040;-74
2023/08/23 02:08:21;;;;;;;0.10;0.00;;;12.60;99.90;;;;;;5097092;28;20124;-74
2023/08/23 02:10:46;;;;;;;0.10;0.10;;;12.60;99.90;;;;;;5107772;28;20079;-74
2023/08/23 02:13:12;;;;;;;0.05;0.05;;;12.50;99.90;;;;;;5104542;28;20044;-76
2023/08/23 02:15:38;;;;;;;0.00;0.00;;;12.50;99.90;;;;;;5105995;28;20043;-74
2023/08/23 02:18:03;;;;;;;0.00;0.00;;;12.50;99.90;;;;;;5098752;28;20039;-74
2023/08/23 02:20:29;;;;;;;0.20;0.20;;;12.40;99.90;;;;;;5088700;28;20119;-74
2023/08/23 02:22:54;;;;;;;0.03;0.03;;;12.40;99.90;;;;;;5103745;28;20100;-74
2023/08/23 02:25:20;;;;;;;0.22;0.22;;;12.30;99.90;;;;;;5097926;28;20049;-74
2023/08/23 02:27:46;;;;;;;0.08;0.08;;;12.20;99.90;;;;;;5089323;28;20032;-74
2023/08/23 02:30:12;;;;;;;0.00;0.00;;;12.20;99.90;;;;;;5104994;28;20028;-74
2023/08/23 02:32:38;;;;;;;0.05;0.05;;;12.10;99.90;;;;;;5094503;28;20036;-74
2023/08/23 02:35:04;;;;;;;0.10;0.10;;;12.00;99.90;;;;;;5096128;28;20398;-73
2023/08/23 02:37:29;;;;;;;0.08;0.05;;;12.00;99.90;;;;;;5104200;28;20076;-75
2023/08/23 02:39:55;;;;;;;1.27;0.65;;;12.00;99.90;;;;;;5101773;28;20040;-72
2023/08/23 02:42:20;;;;;;;0.00;0.00;;;12.00;99.90;;;;;;5101577;28;20083;-73
2023/08/23 02:44:46;;;;;;;0.05;0.05;;;12.00;99.90;;;;;;5097643;28;20043;-75
2023/08/23 02:47:11;;;;;;;0.10;0.10;;;12.00;99.90;;;;;;5093356;28;20024;-73
2023/08/23 02:49:37;;;;;;;0.25;0.25;;;11.90;99.90;;;;;;5105067;28;20122;-73
2023/08/23 02:52:03;;;;;;;0.50;0.40;;;11.90;99.90;;;;;;5102338;28;20402;-73
2023/08/23 02:54:29;;;;;;;0.00;0.00;;;11.90;99.90;;;;;;5101168;28;20047;-75
2023/08/23 02:56:55;;;;;;;0.45;0.35;;;12.00;99.90;;;;;;5093265;28;20032;-73
2023/08/23 02:59:20;;;;;;;0.40;0.40;;;12.10;99.90;;;;;;5104838;28;20122;-73
2023/08/23 03:01:46;;;;;;;0.65;0.38;;;12.20;99.90;;;;;;5104337;28;20035;-73
2023/08/23 03:04:11;;;;;;;1.88;0.65;;;12.30;99.90;;;;;;5092778;28;20037;-73
2023/08/23 03:06:37;;;;;;;0.00;0.00;;;12.30;99.90;;;;;;5095022;28;20044;-73
2023/08/23 03:09:03;;;;;;;0.28;0.22;;;12.30;99.90;;;;;;5101497;28;20525;-73
2023/08/23 03:11:28;;;;;;;0.10;0.00;;;12.30;99.90;;;;;;5092584;28;20105;-73
2023/08/23 03:13:55;;;;;;;0.13;0.13;;;12.30;99.90;;;;;;5100309;28;20033;-73
2023/08/23 03:16:21;;;;;;;0.00;0.00;;;12.30;99.90;;;;;;5102591;28;20082;-73
2023/08/23 03:18:46;;;;;;;0.00;0.00;;;12.40;99.90;;;;;;5108717;28;20072;-73
2023/08/23 03:21:12;;;;;;;0.00;0.00;;;12.40;99.90;;;;;;5101426;28;20478;-73
2023/08/23 03:23:39;;;;;;;0.17;0.17;;;12.50;99.90;;;;;;5102390;28;20048;-73
2023/08/23 03:26:04;;;;;;;0.00;0.00;;;12.50;99.90;;;;;;5101362;28;20036;-73
2023/08/23 03:28:30;;;;;;;7.05;0.32;;;12.70;99.90;;;;;;5109962;28;20547;-73
2023/08/23 03:31:03;;;;;;;0.30;0.30;;;12.60;99.90;;;;;;5101126;28;20089;-73
2023/08/23 03:33:29;;;;;;;0.00;0.00;;;12.70;99.90;;;;;;5097065;28;20527;-73
2023/08/23 03:35:55;;;;;;;0.10;0.10;;;12.70;99.90;;;;;;5096775;28;20040;-73
2023/08/23 03:38:21;;;;;;;0.00;0.00;;;12.80;99.90;;;;;;5105174;28;20032;-73
2023/08/23 03:40:47;;;;;;;0.00;0.00;;;12.70;99.90;;;;;;5106533;28;20486;-73
2023/08/23 03:43:12;;;;;;;0.10;0.10;;;12.70;99.90;;;;;;5111774;28;20040;-72
2023/08/23 03:45:48;;;;;;;0.08;0.08;;;12.70;99.90;;;;;;5104383;28;20482;-73
2023/08/23 03:48:14;;;;;;;;;;;12.70;99.90;;;;;;5097562;28;20048;-73
2023/08/23 03:50:40;;;;;;;0.00;0.00;;;12.70;99.90;;;;;;5104558;28;19946;-73
2023/08/23 03:53:06;;;;;;;0.63;0.40;;;12.70;99.90;;;;;;5106770;28;20059;-73
2023/08/23 03:55:31;;;;;;;0.10;0.10;;;12.70;99.90;;;;;;5113009;28;20039;-73
2023/08/23 03:57:57;;;;;;;0.25;0.25;;;12.70;99.90;;;;;;5101876;28;20379;-73
2023/08/23 04:00:22;;;;;;;3.70;1.95;;;12.80;99.90;;;;;;5107769;28;20039;-72
2023/08/23 04:02:48;;;;;;;0.10;0.10;;;12.90;99.90;;;;;;5107860;28;20127;-73
2023/08/23 04:05:14;;;;;;;0.20;0.10;;;13.10;99.90;;;;;;5100055;28;20085;-73
2023/08/23 04:07:40;;;;;;;0.77;0.65;;;13.10;99.90;;;;;;5101882;28;20035;-73
2023/08/23 04:10:07;;;;;;;0.28;0.28;;;13.20;99.90;;;;;;5107469;28;20067;-72
2023/08/23 04:12:32;;;;;;;1.85;0.47;;;13.30;99.90;;;;;;5103941;28;20055;-73
2023/08/23 04:14:58;;;;;;;1.27;0.52;;;13.30;99.90;;;;;;5104643;28;20047;-74
2023/08/23 04:17:24;;;;;;;0.10;0.10;;;13.40;99.90;;;;;;5104286;28;20036;-74
2023/08/23 04:19:49;;;;;;;1.08;0.20;;;13.40;99.90;;;;;;5098322;28;20328;-74
2023/08/23 04:22:15;;;;;;;0.00;0.00;;;13.40;99.90;;;;;;5103766;28;20044;-74
2023/08/23 04:24:41;;;;;;;0.30;0.30;;;13.50;99.90;;;;;;5094969;27;20050;-74
2023/08/23 04:27:06;;;;;;;4.55;1.77;;;13.50;99.90;;;;;;5107233;28;20035;-74
2023/08/23 04:29:32;;;;;;;0.10;0.10;;;13.60;99.90;;;;;;5105566;28;20040;-74
2023/08/23 04:31:57;;;;;;;0.10;0.05;;;13.60;99.90;;;;;;5104055;28;20043;-74
2023/08/23 04:34:23;;;;;;;0.17;0.10;;;13.60;99.90;;;;;;5097824;28;20041;-74
2023/08/23 04:36:49;;;;;;;0.75;0.10;;;13.70;99.90;;;;;;5100025;28;20127;-74
2023/08/23 04:39:14;;;;;;;0.00;0.00;;;13.90;99.90;;;;;;5103976;28;20039;-74
2023/08/23 04:41:40;;;;;;;0.40;0.32;;;13.80;99.90;;;;;;5106515;28;20042;-74
2023/08/23 04:44:06;;;;;;;0.20;0.20;;;13.70;99.90;;;;;;5102575;28;20097;-74
2023/08/23 04:46:31;;;;;;;1.58;0.80;;;13.80;99.90;;;;;;5094454;28;20501;-74
2023/08/23 04:48:57;;;;;;;0.03;0.03;;;13.80;99.90;;;;;;5105091;28;20040;-74
2023/08/23 04:51:23;;;;;;;1.20;0.90;;;13.80;99.90;;;;;;5103312;28;20387;-73
2023/08/23 04:53:49;;;;;;;1.17;0.80;;;13.90;99.90;;;;;;5098128;28;20052;-74
2023/08/23 04:56:14;;;;;;;1.17;1.08;;;14.00;99.90;;;;;;5094361;28;20040;-72
2023/08/23 04:58:40;;;;;;;0.75;0.75;;;14.00;99.90;;;;;;5103008;28;20056;-73
2023/08/23 05:01:06;;;;;;;0.60;0.55;;;14.00;99.90;;;;;;5104643;28;20036;-73
2023/08/23 05:03:32;;;;;;;1.08;0.30;;;14.00;99.90;;;;;;5103355;28;20043;-75
2023/08/23 05:05:58;;;;;;;0.77;0.32;;;14.00;99.90;;;;;;5106658;28;20045;-73
2023/08/23 05:08:24;;;;;;;0.38;0.35;;;14.00;99.90;;;;;;5103329;28;20694;-73
2023/08/23 05:10:54;;;;;;;0.10;0.10;;;14.00;99.90;;;;;;5102794;28;20044;-73
2023/08/23 05:13:20;;;;;;;0.70;0.57;;;14.00;99.90;;;;;;5103795;28;20040;-73
2023/08/23 05:15:53;;;;;;;0.35;0.35;;;14.00;99.90;;;;;;5107701;28;20452;-73
2023/08/23 05:18:19;;;;;;;1.73;0.65;;;13.90;99.90;;;;;;5103425;28;20441;-73
2023/08/23 05:20:45;;;;;;;0.52;0.45;;;13.90;99.90;;;;;;5105990;28;20126;-73
2023/08/23 05:23:11;;;;;;;0.52;0.20;;;14.00;99.90;;;;;;5105745;28;20114;-73
2023/08/23 05:25:36;;;;;;;0.47;0.47;;;14.00;99.90;;;;;;5096760;27;20040;-73
2023/08/23 05:28:02;;;;;;;0.35;0.30;;;14.10;99.90;;;;;;5104093;28;20039;-73
2023/08/23 05:30:28;;;;;;;0.35;0.25;;;14.20;99.90;;;;;;5102860;28;20071;-76
2023/08/23 05:32:53;;;;;;;0.10;0.10;;;14.40;99.90;;;;;;5103955;28;20512;-73
2023/08/23 05:35:19;;;;;;;0.52;0.47;;;14.60;99.90;;;;;;5103177;28;20442;-73
2023/08/23 05:37:44;;;;;;;1.70;0.50;;;14.60;99.90;;;;;;5102701;28;20050;-73
2023/08/23 05:40:10;;;;;;;1.77;0.73;;;14.80;99.90;;;;;;5097255;28;20101;-73
2023/08/23 05:42:36;;;;;;;0.85;0.77;;;14.90;99.90;;;;;;5102197;28;20047;-74
2023/08/23 05:45:01;;;;;;;0.45;0.45;;;14.90;99.90;;;;;;5105291;28;20036;-73
2023/08/23 05:47:28;;;;;;;1.33;0.70;;;14.90;99.90;;;;;;5105154;28;20044;-72
2023/08/23 05:49:53;;;;;;;0.40;0.35;;;15.00;99.90;;;;;;5103892;28;20076;-73
2023/08/23 05:52:19;;;;;;;0.93;0.85;;;14.90;99.90;;;;;;5099900;28;20040;-73
2023/08/23 05:54:45;;;;;;;0.73;0.57;;;14.80;99.90;;;;;;5093450;28;20510;-73
2023/08/23 05:57:10;;;;;;;1.35;1.02;;;14.80;99.90;;;;;;5097774;28;20434;-73
2023/08/23 05:59:36;;;;;;;0.82;0.60;;;14.90;99.90;;;;;;5105404;28;20047;-73
2023/08/23 06:02:01;;;;;;;0.65;0.57;;;14.90;99.90;;;;;;5101192;28;20035;-73
2023/08/23 06:04:28;;;;;;;3.40;1.17;;;15.00;99.90;;;;;;5098305;28;20041;-73
2023/08/23 06:06:53;;;;;;;1.33;0.80;;;15.20;99.90;;;;;;5094243;28;20530;-73
2023/08/23 06:09:19;;;;;;;1.48;0.43;;;15.30;99.90;;;;;;5100188;28;20469;-73
2023/08/23 06:11:44;;;;;;;0.98;0.85;;;15.50;99.90;;;;;;5097395;28;20046;-74
2023/08/23 06:14:21;;;;;;;3.15;0.63;;;15.40;99.90;;;;;;5101432;28;20092;-73
2023/08/23 06:16:49;;;;;;;1.17;1.08;;;15.60;99.90;;;;;;5092571;28;20044;-73
2023/08/23 06:19:15;;;;;;;1.00;0.77;;;15.60;99.90;;;;;;5098300;28;20051;-73
2023/08/23 06:21:41;;;;;;;0.77;0.52;;;15.60;99.90;;;;;;5091553;28;20486;-74
2023/08/23 06:24:08;;;;;;;0.63;0.63;;;15.40;99.90;;;;;;5101339;28;20130;-73
2023/08/23 06:26:33;;;;;;;5.47;0.63;;;16.40;99.90;;;;;;5092587;28;20048;-73
2023/08/23 06:28:59;;;;;;;0.52;0.52;;;15.70;99.90;;;;;;5096209;28;20062;-73
2023/08/23 06:31:25;;;;;;;3.28;1.83;;;16.20;99.90;;;;;;5082671;28;20036;-73
2023/08/23 06:33:51;;;;;;;2.33;1.25;;;16.60;99.90;;;;;;5086277;28;20094;-74
2023/08/23 06:36:16;;;;;;;1.30;1.10;;;17.30;99.90;;;;;;5087200;28;20071;-74
2023/08/23 06:38:42;;;;;;;2.03;0.55;;;17.70;99.90;;;;;;5100354;28;20071;-74
2023/08/23 06:41:08;;;;;;;1.00;0.90;;;18.20;97.80;;;;;;5094187;28;20506;-74
2023/08/23 06:43:33;;;;;;;2.05;1.30;;;18.80;99.90;;;;;;5093889;28;20043;-74
2023/08/23 06:46:01;;;;;;;1.10;0.85;;;19.30;99.90;;;;;;5092626;28;20068;-74
2023/08/23 06:48:26;;;;;;;0.95;0.85;;;19.80;99.90;;;;;;5100907;28;20090;-74
2023/08/23 06:50:52;;;;;;;3.47;1.30;;;20.50;1.00;;;;;;5085125;28;20761;-74
2023/08/23 06:53:18;;;;;;;4.68;1.23;;;21.00;1.00;;;;;;5100677;28;20035;-74
2023/08/23 06:55:43;;;;;;;5.70;1.70;;;21.60;85.50;;;;;;5100661;28;20043;-74
2023/08/23 06:58:09;;;;;;;0.77;0.70;;;21.90;99.90;;;;;;5098749;28;20050;-74
2023/08/23 07:00:35;;;;;;;5.40;1.48;;;22.20;1.00;;;;;;5097447;28;20126;-74
2023/08/23 07:03:01;;;;;;;0.70;0.68;;;22.60;99.90;;;;;;5097378;28;20043;-74
2023/08/23 07:05:27;;;;;;;4.75;1.70;;;22.80;99.90;;;;;;5099090;28;20135;-74
2023/08/23 07:07:53;;;;;;;0.25;0.25;;;22.80;51.00;;;;;;5096965;28;20482;-74
2023/08/23 07:10:19;;;;;;;1.27;0.70;;;22.90;39.80;;;;;;5103379;28;20044;-73
2023/08/23 07:12:44;;;;;;;0.38;0.25;;;23.40;1.00;;;;;;5104529;28;20540;-73
2023/08/23 07:15:10;;;;;;;0.65;0.60;;;23.40;1.00;;;;;;5100029;28;20490;-73
2023/08/23 07:17:36;;;;;;;1.17;0.88;;;23.70;99.90;;;;;;5104502;28;20027;-73
2023/08/23 07:20:03;;;;;;;0.77;0.77;;;23.90;99.90;;;;;;5092432;27;20041;-72
2023/08/23 07:22:29;;;;;;;0.80;0.55;;;24.20;99.90;;;;;;5106062;28;20409;-72
2023/08/23 07:24:55;;;;;;;1.27;1.02;;;24.30;99.90;;;;;;5101271;28;20047;-72
2023/08/23 07:27:20;;;;;;;0.73;0.57;;;24.70;99.90;;;;;;5087423;28;20044;-72
2023/08/23 07:29:46;;;;;;;0.38;0.30;;;25.00;99.90;;;;;;5087346;28;20048;-72
2023/08/23 07:32:11;;;;;;;0.47;0.40;;;25.00;99.90;;;;;;5089791;28;20036;-72
2023/08/23 07:34:37;;;;;;;0.10;0.10;;;25.30;99.90;;;;;;5100196;28;20437;-72
2023/08/23 07:37:03;;;;;;;0.43;0.43;;;25.70;99.90;;;;;;5099893;28;20072;-73
2023/08/23 07:39:29;;;;;;;0.38;0.38;;;25.80;99.90;;;;;;5097182;28;20179;-73
2023/08/23 07:41:54;;;;;;;0.22;0.22;;;26.30;99.90;;;;;;5098451;28;20047;-73
2023/08/23 07:44:20;;;;;;;0.52;0.35;;;26.90;99.90;;;;;;5104186;28;20048;-73
2023/08/23 07:46:46;;;;;;;0.47;0.30;;;27.40;99.90;;;;;;5098258;28;20197;-73
2023/08/23 07:49:14;;;;;;;0.10;0.10;;;27.10;95.00;;;;;;5098849;28;20062;-73
2023/08/23 07:51:40;;;;;;;1.02;0.55;;;26.30;23.40;;;;;;5086252;28;20115;-73
2023/08/23 07:54:06;;;;;;;0.70;0.50;;;25.30;1.10;;;;;;5095394;28;20119;-73
2023/08/23 07:56:31;;;;;;;0.93;0.30;;;24.60;1.00;;;;;;5094037;28;20032;-73
2023/08/23 07:58:57;;;;;;;0.20;0.20;;;24.40;14.30;;;;;;5101015;28;20047;-73
2023/08/23 08:01:23;;;;;;;0.40;0.30;;;24.90;36.50;;;;;;5099649;28;20050;-73
2023/08/23 08:03:48;;;;;;;2.70;1.38;;;25.80;49.10;;;;;;5100503;28;20383;-73
2023/08/23 08:06:14;;;;;;;0.03;0.03;;;26.50;43.40;;;;;;5094751;28;20048;-73
2023/08/23 08:08:42;;;;;;;0.10;0.10;;;27.10;34.30;;;;;;5103968;28;20038;-72
2023/08/23 08:11:12;;;;;;;0.95;0.43;;;27.40;1.00;;;;;;5103006;28;20413;-72
2023/08/23 08:13:38;;;;;;;0.28;0.28;;;27.40;1.00;;;;;;5100100;28;20040;-73
2023/08/23 08:16:09;;;;;;;0.52;0.32;;;27.70;1.00;;;;;;5096385;28;20131;-73
2023/08/23 08:18:35;;;;;;;0.20;0.17;;;27.90;1.00;;;;;;5100951;28;20063;-73
2023/08/23 08:21:00;;;;;;;0.10;0.10;;;27.90;1.00;;;;;;5093562;28;20494;-73
2023/08/23 08:23:26;;;;;;;0.00;0.00;;;27.70;1.00;;;;;;5100869;28;20050;-73
2023/08/23 08:25:52;;;;;;;0.00;0.00;;;27.70;1.00;;;;;;5100898;28;20039;-73
2023/08/23 08:28:17;;;;;;;0.68;0.30;;;27.90;1.00;;;;;;5100173;28;20643;-73
2023/08/23 08:30:43;;;;;;;0.25;0.22;;;28.10;1.00;;;;;;5093004;28;20036;-74
2023/08/23 08:33:08;;;;;;;0.93;0.45;;;28.20;1.00;;;;;;5102946;28;20101;-73
2023/08/23 08:35:34;;;;;;;0.20;0.10;;;28.30;1.00;;;;;;5098767;28;20039;-73
2023/08/23 08:38:00;;;;;;;0.40;0.20;;;28.40;1.00;;;;;;5100589;28;20417;-74
2023/08/23 08:40:26;;;;;;;0.17;0.15;;;28.30;1.00;;;;;;5102571;28;20039;-74
2023/08/23 08:42:52;;;;;;;5.47;1.08;;;28.20;1.00;;;;;;5100700;28;20047;-74
2023/08/23 08:45:19;;;;;;;0.43;0.32;;;28.20;1.00;;;;;;5099343;28;20048;-73
2023/08/23 08:47:46;;;;;;;0.00;0.00;;;28.40;1.00;;;;;;5099528;28;20039;-73
2023/08/23 08:50:12;;;;;;;0.20;0.20;;;28.40;1.00;;;;;;5100441;28;20161;-73
2023/08/23 08:52:44;;;;;;;0.10;0.10;;;28.50;1.00;;;;;;5102358;28;20045;-73
2023/08/23 08:55:11;;;;;;;0.17;0.17;;;28.80;1.00;;;;;;5099219;28;20048;-73
2023/08/23 08:57:37;;;;;;;0.20;0.20;;;29.00;1.00;;;;;;5097987;28;20047;-72
2023/08/23 09:00:06;;;;;;;0.57;0.32;;;28.60;99.90;;;;;;5097852;28;20106;-73
2023/08/23 09:02:32;;;;;;;0.10;0.10;;;28.40;99.90;;;;;;5102470;28;20520;-73
2023/08/23 09:04:59;;;;;;;0.03;0.03;;;28.60;99.90;;;;;;5102426;28;20486;-73
2023/08/23 09:07:25;;;;;;;0.10;0.10;;;28.50;99.90;;;;;;5090377;28;20113;-73
2023/08/23 09:09:51;;;;;;;0.20;0.20;;;29.00;99.90;;;;;;5097081;28;20040;-73
2023/08/23 09:12:16;;;;;;;0.52;0.30;;;29.40;1.00;;;;;;5097232;28;20127;-73
2023/08/23 09:14:48;;;;;;;0.00;0.00;;;29.80;1.00;;;;;;5101485;28;20050;-73
2023/08/23 09:17:14;;;;;;;0.03;0.03;;;30.30;1.00;;;;;;5101662;28;20485;-73
2023/08/23 09:19:42;;;;;;;0.03;0.03;;;30.60;99.90;;;;;;5099040;28;20072;-74
2023/08/23 09:22:08;;;;;;;0.00;0.00;;;30.80;99.90;;;;;;5094587;28;20044;-74
2023/08/23 09:24:33;;;;;;;0.90;0.82;;;31.00;99.90;;;;;;5100609;28;20044;-74
2023/08/23 09:27:00;;;;;;;0.43;0.43;;;30.70;99.90;;;;;;5101564;28;20035;-73
2023/08/23 09:29:26;;;;;;;0.28;0.28;;;29.90;99.90;;;;;;5096532;28;20050;-74
2023/08/23 09:31:51;;;;;;;0.03;0.03;;;29.00;99.90;;;;;;5089724;28;20040;-73
2023/08/23 09:34:17;;;;;;;0.10;0.10;;;29.10;99.90;;;;;;5093880;28;20119;-74
2023/08/23 09:36:43;;;;;;;0.57;0.40;;;29.50;99.90;;;;;;5095289;28;20041;-74
2023/08/23 09:39:10;;;;;;;0.00;0.00;;;29.90;99.90;;;;;;5100979;28;20067;-74
2023/08/23 09:41:40;;;;;;;0.10;0.10;;;30.40;99.90;;;;;;5093611;28;20043;-74
2023/08/23 09:44:07;;;;;;;0.90;0.75;;;30.80;99.90;;;;;;5090563;28;20036;-74
2023/08/23 09:46:37;;;;;;;0.40;0.30;;;31.00;99.90;;;;;;5098509;28;20047;-73
2023/08/23 09:49:04;;;;;;;0.52;0.35;;;30.70;99.90;;;;;;5097104;28;20040;-73
2023/08/23 09:51:39;;;;;;;0.30;0.30;;;30.00;99.90;;;;;;5092090;28;20087;-73
2023/08/23 09:54:13;;;;;;;0.60;0.45;;;29.10;99.90;;;;;;5100529;28;20097;-73
2023/08/23 09:56:44;;;;;;;0.30;0.30;;;28.60;99.90;;;;;;5100166;28;20101;-73
2023/08/23 09:59:11;;;;;;;0.60;0.22;;;28.30;99.90;;;;;;5099106;28;20543;-74
2023/08/23 10:01:37;;;;;;;0.00;0.00;;;28.10;99.90;;;;;;5095641;28;20269;-74
2023/08/23 10:04:03;;;;;;;0.50;0.50;;;28.20;99.90;;;;;;5097592;28;20048;-74
2023/08/23 10:06:33;;;;;;;0.65;0.30;;;28.00;99.90;;;;;;5079150;28;20042;-74
2023/08/23 10:09:03;;;;;;;0.38;0.38;;;28.00;99.90;;;;;;5084267;28;20040;-74
2023/08/23 10:11:30;;;;;;;2.05;1.20;;;27.90;99.90;;;;;;5084564;28;20061;-74
2023/08/23 10:13:58;;;;;;;0.00;0.00;;;27.80;99.90;;;;;;5101382;28;20040;-73
2023/08/23 10:16:26;;;;;;;0.10;0.10;;;27.80;99.90;;;;;;5091199;28;20045;-73
2023/08/23 10:18:52;;;;;;;0.57;0.40;;;28.10;99.90;;;;;;5080212;28;20028;-74
2023/08/23 10:21:18;;;;;;;0.45;0.22;;;28.20;99.90;;;;;;5082321;28;20044;-74
2023/08/23 10:23:44;;;;;;;0.17;0.17;;;28.30;99.90;;;;;;5091044;28;20050;-74
2023/08/23 10:26:21;;;;;;;0.08;0.08;;;28.20;99.90;;;;;;5101730;28;20130;-74
2023/08/23 10:28:52;;;;;;;0.20;0.20;;;27.80;99.90;;;;;;5090820;28;20040;-74
2023/08/23 10:31:27;;;;;;;1.10;0.73;;;28.00;99.90;;;;;;5087809;28;20063;-75
2023/08/23 10:33:57;;;;;;;0.30;0.30;;;28.20;99.90;;;;;;5098794;28;20040;-74
2023/08/23 10:36:27;;;;;;;0.10;0.10;;;28.20;99.90;;;;;;5099639;28;20044;-74
2023/08/23 10:38:57;;;;;;;0.15;0.13;;;28.20;99.90;;;;;;5102131;28;20076;-74
2023/08/23 10:41:24;;;;;;;0.50;0.35;;;28.30;99.90;;;;;;5099516;28;20070;-74
2023/08/23 10:43:51;;;;;;;0.77;0.25;;;28.60;99.90;;;;;;5095742;28;20434;-74
2023/08/23 10:46:20;;;;;;;0.68;0.50;;;28.90;99.90;;;;;;5103424;28;20075;-73
2023/08/23 10:48:47;;;;;;;0.70;0.45;;;29.20;99.90;;;;;;5103750;28;20470;-73
2023/08/23 10:51:14;;;;;;;0.08;0.03;;;29.00;99.90;;;;;;5108464;28;20039;-74
2023/08/23 10:53:40;;;;;;;0.10;0.10;;;28.70;99.90;;;;;;5103093;28;20059;-74
2023/08/23 10:56:07;;;;;;;0.10;0.10;;;28.60;99.90;;;;;;5105661;28;20040;-74
2023/08/23 10:58:33;;;;;;;0.55;0.32;;;28.20;99.90;;;;;;5106725;28;20040;-74
2023/08/23 11:00:59;;;;;;;0.10;0.10;;;27.70;99.90;;;;;;5103114;27;20439;-73
2023/08/23 11:03:28;;;;;;;0.17;0.13;;;27.50;99.90;;;;;;5104237;28;20197;-74
2023/08/23 11:05:54;;;;;;;0.20;0.10;;;27.40;99.90;;;;;;5103022;28;20051;-74
2023/08/23 11:08:21;;;;;;;16.05;0.88;;;27.70;99.90;;;;;;5105116;28;20040;-74
2023/08/23 11:10:47;;;;;;;0.80;0.45;;;27.80;99.90;;;;;;5102449;28;20059;-74
2023/08/23 11:13:13;;;;;;;1.33;0.45;;;27.70;99.90;;;;;;5097152;28;20139;-74
2023/08/23 11:15:41;;;;;;;1.15;0.80;;;27.60;99.90;;;;;;5095767;28;20048;-74
2023/08/23 11:18:07;;;;;;;9.07;1.33;;;27.70;99.90;;;;;;5108288;28;20454;-74
2023/08/23 11:20:32;;;;;;;0.05;0.05;;;27.70;99.90;;;;;;5094922;28;20119;-74
2023/08/23 11:22:58;;;;;;;0.08;0.08;;;27.50;99.90;;;;;;5107818;27;20040;-73
2023/08/23 11:25:23;;;;;;;0.30;0.20;;;27.30;99.90;;;;;;5099458;27;20047;-73
2023/08/23 11:27:50;;;;;;;0.30;0.20;;;27.20;99.90;;;;;;5105999;28;20043;-74
2023/08/23 11:30:20;;;;;;;0.20;0.17;;;27.00;99.90;;;;;;5105212;28;20080;-73
2023/08/23 11:32:46;;;;;;;0.47;0.40;;;27.00;99.90;;;;;;5102369;28;20046;-73
2023/08/23 11:35:12;;;;;;;0.40;0.30;;;26.90;99.90;;;;;;5096503;28;20032;-73
2023/08/23 11:37:37;;;;;;;0.20;0.20;;;26.70;99.90;;;;;;5098295;28;20033;-74
2023/08/23 11:40:10;;;;;;;0.20;0.20;;;26.80;99.90;;;;;;5106438;28;20540;-74
2023/08/23 11:42:37;;;;;;;15.00;0.65;;;27.30;99.90;;;;;;5105950;28;20046;-73
2023/08/23 11:45:06;;;;;;;0.55;0.43;;;27.80;99.90;;;;;;5101967;28;20036;-73
2023/08/23 11:47:34;;;;;;;0.55;0.35;;;28.60;99.90;;;;;;5086426;28;20047;-74
2023/08/23 11:50:00;;;;;;;7.00;1.25;;;29.50;99.90;;;;;;5106587;28;20051;-74
2023/08/23 11:52:30;;;;;;;0.90;0.43;;;30.50;99.90;;;;;;5106732;28;20041;-74
2023/08/23 11:54:55;;;;;;;0.93;0.40;;;30.90;99.90;;;;;;5106770;28;20138;-73
2023/08/23 11:57:21;;;;;;;0.32;0.30;;;32.20;99.90;;;;;;5096918;28;20056;-74
2023/08/23 11:59:47;;;;;;;0.30;0.20;;;32.50;99.90;;;;;;5103519;28;20040;-73
2023/08/23 12:02:13;;;;;;;0.00;0.00;;;32.40;99.90;;;;;;5103391;28;20486;-74
2023/08/23 12:04:42;;;;;;;0.25;0.25;;;31.50;99.90;;;;;;5104304;28;20069;-74
2023/08/23 12:07:09;;;;;;;1.85;0.77;;;30.70;99.90;;;;;;5097518;28;20078;-73
2023/08/23 12:09:35;;;;;;;0.38;0.25;;;30.00;99.90;;;;;;5099012;28;20036;-74
2023/08/23 12:12:02;;;;;;;1.08;0.35;;;30.40;99.90;;;;;;5098829;28;20052;-73
2023/08/23 12:14:28;;;;;;;0.65;0.30;;;30.80;99.90;;;;;;5106559;28;20051;-73
2023/08/23 12:16:54;;;;;;;1.10;0.65;;;31.30;99.90;;;;;;5108969;28;20036;-74
2023/08/23 12:19:21;;;;;;;0.50;0.40;;;31.80;99.90;;;;;;5104411;28;20055;-74
2023/08/23 12:21:47;;;;;;;0.63;0.52;;;32.30;99.90;;;;;;5103938;28;20482;-74
2023/08/23 12:24:12;;;;;;;0.20;0.20;;;32.60;99.90;;;;;;5104229;28;20043;-74
2023/08/23 12:26:38;;;;;;;4.60;0.65;;;32.50;99.90;;;;;;5111731;28;20390;-73
2023/08/23 12:29:04;;;;;;;0.90;0.22;;;32.60;99.90;;;;;;5099982;28;20119;-73
2023/08/23 12:31:29;;;;;;;0.00;0.00;;;32.70;99.90;;;;;;5106577;28;20441;-72
2023/08/23 12:33:55;;;;;;;1.17;0.25;;;32.60;99.90;;;;;;5103989;28;20028;-73
2023/08/23 12:36:21;;;;;;;0.00;0.00;;;32.40;99.90;;;;;;5103987;28;20482;-74
2023/08/23 12:38:47;;;;;;;0.00;0.00;;;32.40;99.90;;;;;;5098368;28;20515;-73
2023/08/23 12:41:13;;;;;;;0.00;0.00;;;32.50;99.90;;;;;;5106558;28;20032;-74
2023/08/23 12:43:39;;;;;;;3.42;0.65;;;32.60;99.90;;;;;;5106544;28;20074;-74